createdAt,value
2018-06-19T08:49:23.172Z,61.7
2018-06-19T08:50:22.686Z,61.4
2018-06-19T08:51:22.111Z,60.9
2018-06-19T08:52:21.324Z,59.7
2018-06-19T08:52:51.954Z,59.7
2018-06-19T08:53:22.197Z,59.2
2018-06-19T08:54:20.443Z,59.4
2018-06-19T08:55:20.275Z,60
2018-06-19T08:56:19.282Z,59.1
2018-06-19T08:57:18.713Z,58.3
2018-06-19T08:58:18.317Z,58.3
2018-06-19T08:59:17.547Z,58.7
2018-06-19T09:01:16.547Z,58.2
2018-06-19T09:02:15.873Z,57.4
2018-06-19T09:03:15.486Z,57.4
2018-06-19T09:04:14.700Z,55
2018-06-19T09:05:14.533Z,55.7
2018-06-19T09:06:13.850Z,56.3
2018-06-19T09:08:12.556Z,57.2
2018-06-19T09:09:11.883Z,56.9
2018-06-19T09:10:11.389Z,56.9
2018-06-19T09:11:10.722Z,56.5
2018-06-19T09:12:10.540Z,54.1
2018-06-19T09:13:09.753Z,53.7
2018-06-19T09:14:09.181Z,54.1
2018-06-19T09:15:08.904Z,52.7
2018-06-19T09:16:08.225Z,53.8
2018-06-19T09:17:07.443Z,53.3
2018-06-19T09:18:06.870Z,53.1
2018-06-19T09:19:06.381Z,52.4
2018-06-19T09:20:05.823Z,52.9
2018-06-19T09:21:05.198Z,53
2018-06-19T09:22:04.703Z,50.2
2018-06-19T09:23:04.412Z,51
2018-06-19T09:24:03.527Z,50.1
2018-06-19T09:25:03.167Z,50.1
2018-06-19T09:26:02.484Z,49.7
2018-06-19T09:27:01.879Z,50.4
2018-06-19T09:28:01.608Z,50.3
2018-06-19T09:29:00.944Z,48.3
2018-06-19T09:30:00.270Z,49
2018-06-19T09:30:59.716Z,49.8
2018-06-19T09:31:59.144Z,50.6
2018-06-19T09:32:58.571Z,50.3
2018-06-19T09:33:29.208Z,50.3
2018-06-19T09:33:59.839Z,50.9
2018-06-19T09:34:57.547Z,50.4
2018-06-19T09:35:56.983Z,50.9
2018-06-19T09:36:56.343Z,50.9
2018-06-19T09:37:56.064Z,51.4
2018-06-19T09:38:55.569Z,51.5
2018-06-19T09:39:54.889Z,51.9
2018-06-19T09:40:54.215Z,51.6
2018-06-19T09:41:53.641Z,51.5
2018-06-19T09:42:53.078Z,52
2018-06-19T09:43:52.806Z,51.8
2018-06-19T09:45:51.525Z,50.1
2018-06-19T09:46:50.899Z,49.5
2018-06-19T09:47:50.620Z,47.9
2018-06-19T09:48:49.935Z,49.4
2018-06-19T09:49:49.667Z,49.5
2018-06-19T09:50:48.992Z,49
2018-06-19T09:51:48.317Z,48.7
2018-06-19T09:52:47.741Z,48
2018-06-19T09:53:18.381Z,48
2018-06-19T09:54:46.785Z,48
2018-06-19T09:55:45.793Z,47.7
2018-06-19T09:56:45.609Z,48.9
2018-06-19T09:57:45.111Z,46.9
2018-06-19T09:58:44.621Z,47.7
2018-06-19T09:59:43.843Z,47.2
2018-06-19T10:00:43.567Z,47.2
2018-06-19T10:01:42.787Z,47
2018-06-19T10:02:42.619Z,47.3
2018-06-19T10:03:41.832Z,47
2018-06-19T10:04:41.258Z,47.2
2018-06-19T10:05:40.664Z,47.2
2018-06-19T10:06:40.842Z,47.3
2018-06-19T10:07:39.916Z,48.7
2018-06-19T10:08:39.020Z,48.5
2018-06-19T10:09:38.738Z,48.5
2018-06-19T10:10:37.970Z,48.2
2018-06-19T10:11:37.798Z,48.2
2018-06-19T10:12:37.237Z,47.7
2018-06-19T10:13:36.674Z,47.6
2018-06-19T10:14:35.995Z,47.4
2018-06-19T10:15:35.428Z,47.9
2018-06-19T10:16:34.643Z,48.5
2018-06-19T10:17:34.467Z,47.2
2018-06-19T10:18:33.682Z,47.7
2018-06-19T10:19:33.367Z,47.4
2018-06-19T10:20:32.531Z,47.7
2018-06-19T10:21:32.247Z,47.8
2018-06-19T10:22:31.962Z,48
2018-06-19T10:23:31.173Z,48.2
2018-06-19T10:24:30.499Z,48.6
2018-06-19T10:25:30.325Z,48.1
2018-06-19T10:26:29.435Z,47.9
2018-06-19T10:27:28.859Z,48
2018-06-19T10:28:28.835Z,48
2018-06-19T10:29:28.090Z,48.3
2018-06-19T10:30:27.407Z,48.1
2018-06-19T10:31:27.128Z,47.3
2018-06-19T10:32:26.276Z,47.5
2018-06-19T10:33:26.092Z,47.3
2018-06-19T10:33:56.720Z,47.3
2018-06-19T10:35:24.726Z,46.9
2018-06-19T10:36:24.542Z,47.4
2018-06-19T10:37:23.864Z,47.4
2018-06-19T10:38:23.180Z,48.4
2018-06-19T10:39:22.888Z,47.5
2018-06-19T10:40:22.505Z,48
2018-06-19T10:41:21.717Z,47.9
2018-06-19T10:42:21.327Z,47.6
2018-06-19T10:43:20.751Z,46.4
2018-06-19T10:44:20.567Z,47
2018-06-19T10:45:19.884Z,47.5
2018-06-19T10:46:19.097Z,47.6
2018-06-19T10:47:18.928Z,47.3
2018-06-19T10:48:18.258Z,47.6
2018-06-19T10:49:17.698Z,48.1
2018-06-19T10:50:17.525Z,46.3
2018-06-19T10:51:16.963Z,46.2
2018-06-19T10:52:16.188Z,47.4
2018-06-19T10:53:15.621Z,46.6
2018-06-19T10:54:15.393Z,46.1
2018-06-19T10:55:14.955Z,46.1
2018-06-19T10:56:14.164Z,47.6
2018-06-19T10:57:13.888Z,46.2
2018-06-19T10:58:13.107Z,47.2
2018-06-19T10:59:12.833Z,46.8
2018-06-19T11:00:12.159Z,47.3
2018-06-19T11:01:11.659Z,46.4
2018-06-19T11:02:11.380Z,46.1
2018-06-19T11:03:10.700Z,46
2018-06-19T11:04:10.130Z,47
2018-06-19T11:05:10.126Z,47.7
2018-06-19T11:06:09.219Z,46.6
2018-06-19T11:07:08.732Z,46.9
2018-06-19T11:08:08.479Z,46.7
2018-06-19T11:09:07.952Z,46.2
2018-06-19T11:10:07.291Z,46.8
2018-06-19T11:11:07.111Z,46.9
2018-06-19T11:12:06.437Z,47
2018-06-19T11:13:05.878Z,46.5
2018-06-19T11:14:05.676Z,46
2018-06-19T11:15:04.905Z,47.8
2018-06-19T11:16:04.227Z,46.4
2018-06-19T11:17:04.050Z,46.5
2018-06-19T11:18:03.263Z,45.6
2018-06-19T11:19:02.980Z,46.5
2018-06-19T11:20:02.274Z,46.9
2018-06-19T11:21:01.852Z,47.4
2018-06-19T11:22:01.690Z,44.8
2018-06-19T11:23:00.691Z,45.7
2018-06-19T11:24:00.655Z,45
2018-06-19T11:25:00.136Z,44.7
2018-06-19T11:25:59.558Z,45.5
2018-06-19T11:26:59.279Z,45.3
2018-06-19T11:27:58.610Z,45.6
2018-06-19T11:28:58.079Z,46
2018-06-19T11:29:57.464Z,45.7
2018-06-19T11:30:57.396Z,45.7
2018-06-19T11:31:56.611Z,46.2
2018-06-19T11:32:56.451Z,46.5
2018-06-19T11:33:55.667Z,46.2
2018-06-19T11:34:55.269Z,45.9
2018-06-19T11:35:25.524Z,45.9
2018-06-19T11:36:54.161Z,46.3
2018-06-19T11:37:53.870Z,46.1
2018-06-19T11:38:53.189Z,46.3
2018-06-19T11:39:53.141Z,46.2
2018-06-19T11:40:52.353Z,45.4
2018-06-19T11:41:52.171Z,46.2
2018-06-19T11:42:51.498Z,45.4
2018-06-19T11:43:50.825Z,45.9
2018-06-19T11:44:50.435Z,46.5
2018-06-19T11:45:20.696Z,46.5
2018-06-19T11:46:49.724Z,45.7
2018-06-19T11:47:49.051Z,45.7
2018-06-19T11:48:48.385Z,46.2
2018-06-19T11:49:48.317Z,47.5
2018-06-19T11:50:47.420Z,46.6
2018-06-19T11:51:47.249Z,47.2
2018-06-19T11:52:46.856Z,46.5
2018-06-19T11:53:46.181Z,46.3
2018-06-19T11:54:46.003Z,46.7
2018-06-19T11:55:45.113Z,46.3
2018-06-19T11:57:44.227Z,47
2018-06-19T11:58:44.052Z,46.7
2018-06-19T11:59:43.275Z,46.5
2018-06-19T12:00:42.704Z,46.9
2018-06-19T12:01:42.537Z,46.9
2018-06-19T12:02:41.976Z,47.1
2018-06-19T12:03:41.408Z,47.2
2018-06-19T12:04:41.119Z,47
2018-06-19T12:05:40.233Z,47
2018-06-19T12:06:40.005Z,46.7
2018-06-19T12:07:39.511Z,47.4
2018-06-19T12:08:39.336Z,47
2018-06-19T12:09:38.658Z,47.3
2018-06-19T12:10:37.980Z,46.6
2018-06-19T12:11:37.802Z,47.9
2018-06-19T12:12:36.918Z,47.1
2018-06-19T12:13:36.746Z,47.8
2018-06-19T12:14:36.356Z,47.7
2018-06-19T12:15:35.685Z,47.5
2018-06-19T12:16:05.920Z,47.5
2018-06-19T12:16:36.349Z,47.5
2018-06-19T12:17:06.979Z,47.5
2018-06-19T12:18:34.383Z,48.4
2018-06-19T12:19:34.118Z,48.4
2018-06-19T12:20:33.221Z,47.9
2018-06-19T12:21:33.152Z,48
2018-06-19T12:22:32.580Z,48.4
2018-06-19T12:23:31.892Z,48.2
2018-06-19T12:24:31.717Z,47.9
2018-06-19T12:25:31.030Z,47.9
2018-06-19T12:26:30.450Z,47.9
2018-06-19T12:27:30.280Z,48
2018-06-19T12:28:00.921Z,48
2018-06-19T12:28:31.230Z,48.9
2018-06-19T12:29:29.043Z,48.9
2018-06-19T12:30:28.474Z,48.3
2018-06-19T12:31:28.185Z,48.1
2018-06-19T12:32:27.501Z,48.5
2018-06-19T12:33:27.431Z,48.8
2018-06-19T12:34:26.741Z,48.3
2018-06-19T12:35:26.453Z,50.3
2018-06-19T12:36:25.579Z,49
2018-06-19T12:37:25.440Z,49.4
2018-06-19T12:38:24.520Z,49.1
2018-06-19T12:39:24.127Z,48.3
2018-06-19T12:40:23.742Z,48.8
2018-06-19T12:41:23.108Z,48.8
2018-06-19T12:42:22.829Z,48.4
2018-06-19T12:43:22.335Z,48.7
2018-06-19T12:44:21.944Z,49.1
2018-06-19T12:45:21.367Z,48.8
2018-06-19T12:46:20.683Z,48.8
2018-06-19T12:47:20.398Z,48.5
2018-06-19T12:48:20.010Z,48.8
2018-06-19T12:49:19.328Z,49
2018-06-19T12:50:19.153Z,48.8
2018-06-19T12:51:18.370Z,48.8
2018-06-19T12:52:18.196Z,49.6
2018-06-19T12:53:17.614Z,48.5
2018-06-19T12:54:16.825Z,48.4
2018-06-19T12:55:16.767Z,49.1
2018-06-19T12:56:16.094Z,48.3
2018-06-19T12:57:15.837Z,48.3
2018-06-19T12:58:15.156Z,49.1
2018-06-19T12:59:14.478Z,48.9
2018-06-19T13:00:14.305Z,48.9
2018-06-19T13:01:13.631Z,49.4
2018-06-19T13:02:13.455Z,48.5
2018-06-19T13:03:12.680Z,49.1
2018-06-19T13:04:12.502Z,48.5
2018-06-19T13:05:11.841Z,48.3
2018-06-19T13:06:11.371Z,48.8
2018-06-19T13:07:10.580Z,48.9
2018-06-19T13:08:10.297Z,48.8
2018-06-19T13:09:10.022Z,49.2
2018-06-19T13:10:09.347Z,49.2
2018-06-19T13:11:09.023Z,49.4
2018-06-19T13:12:08.322Z,49.4
2018-06-19T13:13:07.750Z,50.2
2018-06-19T13:14:07.458Z,50
2018-06-19T13:15:06.831Z,49.5
2018-06-19T13:16:06.656Z,49.4
2018-06-19T13:17:05.701Z,49.4
2018-06-19T13:17:36.459Z,49.4
2018-06-19T13:19:05.225Z,49.2
2018-06-19T13:20:04.660Z,48.7
2018-06-19T13:21:04.085Z,49.1
2018-06-19T13:22:03.586Z,49
2018-06-19T13:23:03.412Z,48.5
2018-06-19T13:24:02.628Z,48.9
2018-06-19T13:25:01.955Z,49.2
2018-06-19T13:26:01.571Z,49.4
2018-06-19T13:27:01.508Z,49.2
2018-06-19T13:27:32.147Z,49.2
2018-06-19T13:28:02.567Z,49
2018-06-19T13:28:32.982Z,49
2018-06-19T13:29:03.513Z,49.5
2018-06-19T13:29:34.051Z,49.5
2018-06-19T13:30:59.547Z,48.9
2018-06-19T13:31:58.760Z,48.6
2018-06-19T13:32:58.369Z,48.6
2018-06-19T13:33:57.794Z,48.9
2018-06-19T13:34:57.512Z,48.7
2018-06-19T13:35:56.833Z,49.4
2018-06-19T13:36:56.550Z,49.1
2018-06-19T13:37:55.979Z,49.2
2018-06-19T13:38:55.400Z,49.6
2018-06-19T13:39:54.822Z,49.9
2018-06-19T13:40:25.354Z,49.9
2018-06-19T13:41:53.863Z,49.6
2018-06-19T13:42:53.791Z,49
2018-06-19T13:43:53.109Z,49.2
2018-06-19T13:44:52.435Z,49.2
2018-06-19T13:45:52.256Z,49
2018-06-19T13:46:51.587Z,49.5
2018-06-19T13:47:51.405Z,49.3
2018-06-19T13:48:50.511Z,49.6
2018-06-19T13:49:50.495Z,49.6
2018-06-19T13:50:49.660Z,50.2
2018-06-19T13:51:49.506Z,50.2
2018-06-19T13:52:48.840Z,49.3
2018-06-19T13:53:48.268Z,49.4
2018-06-19T13:54:47.980Z,49.8
2018-06-19T13:55:47.305Z,49.5
2018-06-19T13:56:46.729Z,49.8
2018-06-19T13:57:46.341Z,49.4
2018-06-19T13:58:46.060Z,49.6
2018-06-19T13:59:45.380Z,49.5
2018-06-19T14:00:45.098Z,49.5
2018-06-19T14:01:44.612Z,49.7
2018-06-19T14:02:43.893Z,49.7
2018-06-19T14:03:43.323Z,49.7
2018-06-19T14:04:42.933Z,49.8
2018-06-19T14:05:42.753Z,50.5
2018-06-19T14:06:42.085Z,50.4
2018-06-19T14:07:42.106Z,50.7
2018-06-19T14:08:40.820Z,50.4
2018-06-19T14:09:40.434Z,51
2018-06-19T14:10:10.850Z,51
2018-06-19T14:11:39.544Z,50.8
2018-06-19T14:12:39.158Z,50.6
2018-06-19T14:13:38.375Z,51.4
2018-06-19T14:14:37.882Z,50.7
2018-06-19T14:15:37.600Z,50.6
2018-06-19T14:16:37.029Z,50.7
2018-06-19T14:17:36.858Z,50.8
2018-06-19T14:18:36.154Z,50.5
2018-06-19T14:19:35.627Z,51
2018-06-19T14:20:35.015Z,51.7
2018-06-19T14:21:34.909Z,50.7
2018-06-19T14:22:34.236Z,50.5
2018-06-19T14:23:33.559Z,50.6
2018-06-19T14:24:33.279Z,50.8
2018-06-19T14:25:33.001Z,50.8
2018-06-19T14:26:32.429Z,50.9
2018-06-19T14:27:31.855Z,51.2
2018-06-19T14:28:31.512Z,51.3
2018-06-19T14:29:02.036Z,51.3
2018-06-19T14:29:32.568Z,51.5
2018-06-19T14:30:03.089Z,51.5
2018-06-19T14:30:33.623Z,51.5
2018-06-19T14:31:04.256Z,51.5
2018-06-19T14:32:29.132Z,51.7
2018-06-19T14:33:29.068Z,52.1
2018-06-19T14:34:28.281Z,51.7
2018-06-19T14:35:28.002Z,51.9
2018-06-19T14:36:27.424Z,51.4
2018-06-19T14:37:26.638Z,51.3
2018-06-19T14:38:26.363Z,51.6
2018-06-19T14:39:25.874Z,51.9
2018-06-19T14:40:25.606Z,51.9
2018-06-19T14:41:24.758Z,51.8
2018-06-19T14:42:24.476Z,52.3
2018-06-19T14:43:23.798Z,52.6
2018-06-19T14:44:23.625Z,52.6
2018-06-19T14:45:23.233Z,52.7
2018-06-19T14:46:22.554Z,52.7
2018-06-19T14:47:21.768Z,52.8
2018-06-19T14:48:21.753Z,52.7
2018-06-19T14:50:20.514Z,52.9
2018-06-19T14:51:19.836Z,52.9
2018-06-19T14:52:19.704Z,53.2
2018-06-19T14:53:18.912Z,53.8
2018-06-19T14:54:18.731Z,52.8
2018-06-19T14:55:18.165Z,52.9
2018-06-19T14:56:17.487Z,52.9
2018-06-19T14:57:16.915Z,52.9
2018-06-19T14:58:16.363Z,53.1
2018-06-19T14:59:16.075Z,53.3
2018-06-19T15:00:15.390Z,53.1
2018-06-19T15:01:14.998Z,53.8
2018-06-19T15:02:14.212Z,53.2
2018-06-19T15:03:13.937Z,53.3
2018-06-19T15:04:13.659Z,53.2
2018-06-19T15:05:12.981Z,53
2018-06-19T15:06:12.411Z,53.1
2018-06-19T15:07:11.814Z,53.4
2018-06-19T15:08:11.776Z,53.4
2018-06-19T15:09:11.212Z,53.4
2018-06-19T15:10:10.594Z,53.7
2018-06-19T15:10:41.085Z,53.7
2018-06-19T15:11:11.410Z,53.7
2018-06-19T15:11:42.039Z,53.7
2018-06-19T15:12:12.208Z,53.9
2018-06-19T15:12:42.758Z,53.9
2018-06-19T15:13:13.392Z,53.7
2018-06-19T15:13:44.022Z,53.7
2018-06-19T15:14:14.437Z,53.7
2018-06-19T15:15:08.221Z,53.5
2018-06-19T15:16:07.448Z,53.6
2018-06-19T15:17:06.884Z,53.9
2018-06-19T15:18:06.707Z,53.9
2018-06-19T15:19:05.915Z,53.7
2018-06-19T15:20:05.524Z,53.8
2018-06-19T15:21:05.134Z,53.9
2018-06-19T15:22:04.351Z,54.1
2018-06-19T15:22:34.877Z,54.1
2018-06-19T15:23:05.299Z,53.9
2018-06-19T15:24:03.497Z,53.8
2018-06-19T15:25:02.949Z,54.1
2018-06-19T15:26:02.272Z,53.9
2018-06-19T15:27:01.887Z,53.7
2018-06-19T15:28:01.400Z,54.1
2018-06-19T15:30:00.401Z,53.9
2018-06-19T15:30:59.742Z,54
2018-06-19T15:31:59.249Z,54.3
2018-06-19T15:32:58.868Z,54
2018-06-19T15:33:58.588Z,54.4
2018-06-19T15:34:57.811Z,53.9
2018-06-19T15:35:57.424Z,54.1
2018-06-19T15:37:56.236Z,54
2018-06-19T15:38:56.062Z,54.1
2018-06-19T15:39:55.388Z,54.2
2018-06-19T15:40:54.715Z,54
2018-06-19T15:41:54.435Z,54.1
2018-06-19T15:42:53.758Z,54.1
2018-06-19T15:43:53.192Z,54.2
2018-06-19T15:44:52.902Z,54.4
2018-06-19T15:45:52.117Z,54.5
2018-06-19T15:46:51.948Z,54.7
2018-06-19T15:47:51.170Z,54.5
2018-06-19T15:48:50.887Z,54.7
2018-06-19T15:49:50.205Z,54.5
2018-06-19T15:50:49.638Z,54.7
2018-06-19T15:51:49.349Z,54.3
2018-06-19T15:52:48.564Z,54.8
2018-06-19T15:53:48.395Z,54.7
2018-06-19T15:54:47.720Z,54.9
2018-06-19T15:55:46.934Z,54.7
2018-06-19T15:56:46.649Z,54.8
2018-06-19T15:57:46.263Z,54.8
2018-06-19T15:58:45.709Z,55
2018-06-19T15:59:44.945Z,55.1
2018-06-19T16:00:44.767Z,54.9
2018-06-19T16:01:44.084Z,54.9
2018-06-19T16:02:43.690Z,54.9
2018-06-19T16:03:43.014Z,54.8
2018-06-19T16:04:42.840Z,54.8
2018-06-19T16:05:41.839Z,54.9
2018-06-19T16:06:41.343Z,55
2018-06-19T16:07:41.137Z,55
2018-06-19T16:08:40.850Z,55
2018-06-19T16:09:40.285Z,55.3
2018-06-19T16:10:39.601Z,55.2
2018-06-19T16:11:09.837Z,55.2
2018-06-19T16:11:40.373Z,55.3
2018-06-19T16:12:11.002Z,55.3
2018-06-19T16:13:37.907Z,56.1
2018-06-19T16:14:37.735Z,55.5
2018-06-19T16:15:36.942Z,55.5
2018-06-19T16:16:36.271Z,55.3
2018-06-19T16:17:36.089Z,55.6
2018-06-19T16:18:35.704Z,55.7
2018-06-19T16:19:34.932Z,55.4
2018-06-19T16:20:34.365Z,55.7
2018-06-19T16:21:04.789Z,55.7
2018-06-19T16:21:35.032Z,56.5
2018-06-19T16:22:05.169Z,56.5
2018-06-19T16:22:35.802Z,56
2018-06-19T16:23:06.217Z,56
2018-06-19T16:23:36.748Z,56.3
2018-06-19T16:24:07.264Z,56.3
2018-06-19T16:25:32.044Z,56
2018-06-19T16:26:31.512Z,55.5
2018-06-19T16:27:30.855Z,55.8
2018-06-19T16:28:30.583Z,55.6
2018-06-19T16:29:29.800Z,55.8
2018-06-19T16:30:29.224Z,55.8
2018-06-19T16:31:28.655Z,55.9
2018-06-19T16:32:28.157Z,56.1
2018-06-19T16:33:27.985Z,56.1
2018-06-19T16:34:27.202Z,55.8
2018-06-19T16:35:26.416Z,55.8
2018-06-19T16:36:26.023Z,55.7
2018-06-19T16:37:25.840Z,55.9
2018-06-19T16:38:25.169Z,55.8
2018-06-19T16:39:24.383Z,56
2018-06-19T16:40:24.123Z,55.7
2018-06-19T16:41:23.846Z,56
2018-06-19T16:42:22.857Z,55.9
2018-06-19T16:43:22.576Z,56.5
2018-06-19T16:44:22.293Z,56.1
2018-06-19T16:45:21.542Z,56.1
2018-06-19T16:46:20.915Z,56.3
2018-06-19T16:47:20.742Z,56
2018-06-19T16:48:20.093Z,56.3
2018-06-19T16:49:19.410Z,56.1
2018-06-19T16:50:19.133Z,56.5
2018-06-19T16:51:18.458Z,56.4
2018-06-19T16:52:18.274Z,56.6
2018-06-19T16:53:17.503Z,56.5
2018-06-19T16:54:16.831Z,56.5
2018-06-19T16:55:16.447Z,56.1
2018-06-19T16:56:16.169Z,56.5
2018-06-19T16:57:15.600Z,56.7
2018-06-19T16:58:14.713Z,56.4
2018-06-19T16:59:14.543Z,56.3
2018-06-19T17:00:14.137Z,56.5
2018-06-19T17:01:13.303Z,56.3
2018-06-19T17:02:12.514Z,56.2
2018-06-19T17:03:12.340Z,56.5
2018-06-19T17:03:42.858Z,56.5
2018-06-19T17:04:13.377Z,56.5
2018-06-19T17:04:44.125Z,56.5
2018-06-19T17:06:10.619Z,56.8
2018-06-19T17:07:10.353Z,56.6
2018-06-19T17:08:09.577Z,56.8
2018-06-19T17:09:09.015Z,57.1
2018-06-19T17:10:08.628Z,56.7
2018-06-19T17:11:08.344Z,56.6
2018-06-19T17:12:07.568Z,56.7
2018-06-19T17:13:07.396Z,56.7
2018-06-19T17:14:06.503Z,56.7
2018-06-19T17:15:05.934Z,56.7
2018-06-19T17:16:05.760Z,56.5
2018-06-19T17:17:04.870Z,56.5
2018-06-19T17:18:04.589Z,56.8
2018-06-19T17:19:03.914Z,56.7
2018-06-19T17:20:03.747Z,56.8
2018-06-19T17:21:02.973Z,56.8
2018-06-19T17:22:02.193Z,56.5
2018-06-19T17:22:32.512Z,56.5
2018-06-19T17:23:03.142Z,56.7
2018-06-19T17:23:33.661Z,56.7
2018-06-19T17:24:04.297Z,56.8
2018-06-19T17:24:34.717Z,56.8
2018-06-19T17:26:00.322Z,56.9
2018-06-19T17:27:59.320Z,57
2018-06-19T17:28:59.030Z,56.8
2018-06-19T17:29:58.292Z,56.7
2018-06-19T17:30:57.779Z,57.1
2018-06-19T17:31:57.507Z,57.1
2018-06-19T17:32:56.945Z,56.9
2018-06-19T17:33:56.296Z,56.9
2018-06-19T17:34:55.623Z,56.8
2018-06-19T17:35:55.464Z,56.9
2018-06-19T17:36:54.686Z,57
2018-06-19T17:37:53.909Z,56.7
2018-06-19T17:39:53.123Z,57.1
2018-06-19T17:40:52.587Z,56.9
2018-06-19T17:42:51.781Z,57.1
2018-06-19T17:43:51.212Z,56.8
2018-06-19T17:44:50.535Z,57.3
2018-06-19T17:45:49.854Z,57
2018-06-19T17:46:49.282Z,57.3
2018-06-19T17:47:49.251Z,57
2018-06-19T17:48:48.476Z,57.3
2018-06-19T17:49:48.090Z,57.3
2018-06-19T17:50:47.517Z,57
2018-06-19T17:51:46.737Z,56.9
2018-06-19T17:52:46.157Z,56.7
2018-06-19T17:53:16.799Z,56.7
2018-06-19T17:53:47.218Z,56.9
2018-06-19T17:54:17.750Z,56.9
2018-06-19T17:54:48.173Z,57
2018-06-19T17:55:44.763Z,57.4
2018-06-19T17:56:44.096Z,56.6
2018-06-19T17:57:43.922Z,57
2018-06-19T17:58:43.134Z,56.8
2018-06-19T17:59:42.978Z,56.9
2018-06-19T18:00:42.303Z,56.9
2018-06-19T18:03:57.537Z,56.8
2018-06-19T18:04:40.145Z,57
2018-06-19T18:05:10.669Z,57
2018-06-19T18:05:41.194Z,57.1
2018-06-19T18:06:11.722Z,57.1
2018-06-19T18:08:38.133Z,57.4
2018-06-19T18:09:37.646Z,57.5
2018-06-19T18:10:36.876Z,57.6
2018-06-19T18:11:36.663Z,57.9
2018-06-19T18:12:36.089Z,57.9
2018-06-19T18:13:35.299Z,58
2018-06-19T18:14:35.050Z,58.1
2018-06-19T18:15:34.370Z,58.3
2018-06-19T18:16:04.602Z,58.3
2018-06-19T18:16:35.161Z,58.8
2018-06-19T18:17:05.588Z,58.8
2018-06-19T18:17:36.009Z,58.9
2018-06-19T18:18:32.923Z,59.1
2018-06-19T18:19:32.255Z,59.2
2018-06-19T18:20:31.979Z,59.4
2018-06-19T18:21:31.467Z,59.6
2018-06-19T18:22:30.888Z,59.7
2018-06-19T18:23:30.003Z,59.8
2018-06-19T18:24:29.835Z,59.8
2018-06-19T18:25:28.943Z,59.8
2018-06-19T18:26:28.768Z,60
2018-06-19T18:27:27.982Z,60.1
2018-06-19T18:28:27.809Z,59.9
2018-06-19T18:29:27.133Z,60
2018-06-19T18:30:26.561Z,59.7
2018-06-19T18:31:25.762Z,59.4
2018-06-19T18:32:25.597Z,59.4
2018-06-19T18:33:25.128Z,59.5
2018-06-19T18:34:24.529Z,59.3
2018-06-19T18:35:23.744Z,59.3
2018-06-19T18:36:23.476Z,59.4
2018-06-19T18:37:22.985Z,59.5
2018-06-19T18:38:22.303Z,59.6
2018-06-19T18:39:21.625Z,59.4
2018-06-19T18:40:21.240Z,59.4
2018-06-19T18:41:20.449Z,59.6
2018-06-19T18:42:20.162Z,59.7
2018-06-19T18:43:19.773Z,59.5
2018-06-19T18:44:18.984Z,59.8
2018-06-19T18:45:18.798Z,59.6
2018-06-19T18:46:18.021Z,59.3
2018-06-19T18:48:16.846Z,59.5
2018-06-19T18:49:16.459Z,59.6
2018-06-19T18:50:16.079Z,59.3
2018-06-19T18:51:15.295Z,59.2
2018-06-19T18:52:15.018Z,59.4
2018-06-19T18:53:14.449Z,59.6
2018-06-19T18:54:13.790Z,59.3
2018-06-19T18:55:13.509Z,59.5
2018-06-19T18:56:12.723Z,59.7
2018-06-19T18:57:12.155Z,59.6
2018-06-19T18:58:11.873Z,59.7
2018-06-19T18:59:11.199Z,59.9
2018-06-19T19:00:10.424Z,59.7
2018-06-19T19:01:10.360Z,59.8
2018-06-19T19:02:09.692Z,60
2018-06-19T19:03:09.014Z,60
2018-06-19T19:03:39.552Z,60
2018-06-19T19:04:10.082Z,60
2018-06-19T19:04:40.617Z,60
2018-06-19T19:05:11.147Z,60
2018-06-19T19:05:41.382Z,60
2018-06-19T19:07:06.891Z,60
2018-06-19T19:08:06.217Z,60.6
2018-06-19T19:09:05.935Z,60.3
2018-06-19T19:10:05.256Z,60.4
2018-06-19T19:11:04.687Z,60.6
2018-06-19T19:12:04.007Z,60.6
2018-06-19T19:13:03.838Z,60.7
2018-06-19T19:14:03.181Z,60.8
2018-06-19T19:14:33.822Z,60.8
2018-06-19T19:16:02.141Z,61
2018-06-19T19:17:01.546Z,60.9
2018-06-19T19:18:00.767Z,61
2018-06-19T19:19:00.488Z,61.2
2018-06-19T19:20:00.093Z,61.1
2018-06-19T19:20:59.312Z,61.2
2018-06-19T19:21:58.930Z,61.4
2018-06-19T19:22:58.436Z,61.4
2018-06-19T19:23:57.768Z,61.7
2018-06-19T19:24:57.215Z,61.6
2018-06-19T19:25:56.848Z,61.8
2018-06-19T19:26:56.164Z,61.8
2018-06-19T19:27:55.373Z,61.9
2018-06-19T19:28:54.981Z,62
2018-06-19T19:29:54.712Z,61.8
2018-06-19T19:30:54.031Z,63.1
2018-06-19T19:31:53.249Z,62.5
2018-06-19T19:32:52.886Z,62.7
2018-06-19T19:33:52.075Z,62.6
2018-06-19T19:34:51.905Z,62.8
2018-06-19T19:35:51.234Z,62.7
2018-06-19T19:36:50.442Z,62.8
2018-06-19T19:37:50.167Z,62.6
2018-06-19T19:38:49.597Z,62.9
2018-06-19T19:39:48.811Z,62.9
2018-06-19T19:40:48.359Z,62.9
2018-06-19T19:41:47.892Z,62.8
2018-06-19T19:42:47.218Z,63.8
2018-06-19T19:43:46.820Z,63.4
2018-06-19T19:44:17.238Z,63.4
2018-06-19T19:44:47.660Z,64.1
2018-06-19T19:45:17.902Z,64.1
2018-06-19T19:45:48.532Z,63.8
2018-06-19T19:46:18.767Z,63.8
2018-06-19T19:46:49.397Z,64
2018-06-19T19:47:19.535Z,64
2018-06-19T19:47:50.420Z,64
2018-06-19T19:48:20.951Z,64
2018-06-19T19:49:43.319Z,64.1
2018-06-19T19:50:43.159Z,64
2018-06-19T19:51:42.375Z,64.4
2018-06-19T19:52:41.987Z,65
2018-06-19T19:53:41.302Z,64.7
2018-06-19T19:54:40.514Z,65.9
2018-06-19T19:55:40.358Z,65.9
2018-06-19T19:56:10.993Z,65.9
2018-06-19T19:56:41.632Z,66.5
2018-06-19T19:57:11.868Z,66.5
2018-06-19T19:57:42.497Z,65.5
2018-06-19T19:58:13.069Z,65.5
2018-06-19T19:59:37.784Z,66.1
2018-06-19T20:00:37.317Z,66.8
2018-06-19T20:01:36.652Z,67.6
2018-06-19T20:03:35.754Z,68
2018-06-19T20:04:34.972Z,67.9
2018-06-19T20:05:34.797Z,67.7
2018-06-19T20:06:34.007Z,67.7
2018-06-19T20:07:33.219Z,67.7
2018-06-19T20:08:32.706Z,67.9
2018-06-19T20:09:32.524Z,67.8
2018-06-19T20:10:31.743Z,67.6
2018-06-19T20:11:31.245Z,67.7
2018-06-19T20:12:30.458Z,67.8
2018-06-19T20:13:29.779Z,67.8
2018-06-19T20:14:29.500Z,67.8
2018-06-19T20:15:28.941Z,68
2018-06-19T20:16:28.265Z,68
2018-06-19T20:17:27.690Z,68.3
2018-06-19T20:18:27.404Z,68.8
2018-06-19T20:19:26.725Z,69.2
2018-06-19T20:20:25.829Z,69.4
2018-06-19T20:21:25.552Z,69.8
2018-06-19T20:22:24.668Z,69.2
2018-06-19T20:23:24.501Z,69.1
2018-06-19T20:24:23.941Z,69.1
2018-06-19T20:25:23.157Z,69.3
2018-06-19T20:26:22.481Z,69.5
2018-06-19T20:27:21.806Z,69.7
2018-06-19T20:28:21.232Z,70.3
2018-06-19T20:29:20.658Z,70.2
2018-06-19T20:30:20.221Z,70
2018-06-19T20:31:19.439Z,70.5
2018-06-19T20:32:18.868Z,70.2
2018-06-19T20:33:18.471Z,71.1
2018-06-19T20:34:18.079Z,71.3
2018-06-19T20:35:17.393Z,71.1
2018-06-19T20:36:16.503Z,70.9
2018-06-19T20:37:16.232Z,70.9
2018-06-19T20:38:15.338Z,71.5
2018-06-19T20:38:45.645Z,71.5
2018-06-19T20:40:14.654Z,73.4
2018-06-19T20:41:13.969Z,72.8
2018-06-19T20:42:13.302Z,72.3
2018-06-19T20:43:12.915Z,72.5
2018-06-19T20:44:12.039Z,72.2
2018-06-19T20:44:42.270Z,72.2
2018-06-19T20:45:12.908Z,72.1
2018-06-19T20:45:43.324Z,72.1
2018-06-19T20:46:13.972Z,72
2018-06-19T20:46:44.719Z,72
2018-06-19T20:47:15.346Z,72
2018-06-19T20:48:09.633Z,72
2018-06-19T20:49:08.936Z,72.4
2018-06-19T20:50:08.363Z,73.4
2018-06-19T20:51:08.076Z,73.3
2018-06-19T20:52:07.296Z,73.2
2018-06-19T20:53:06.624Z,73.9
2018-06-19T20:54:06.338Z,73.3
2018-06-19T20:54:36.682Z,73.3
2018-06-19T20:55:07.097Z,73.5
2018-06-19T20:55:37.518Z,73.5
2018-06-19T20:56:08.043Z,74.6
2018-06-19T20:56:38.791Z,74.6
2018-06-19T20:57:09.360Z,74.2
2018-06-19T20:57:39.881Z,74.2
2018-06-19T20:58:10.507Z,74
2018-06-19T20:58:41.086Z,74
2018-06-19T21:00:02.442Z,74.6
2018-06-19T21:01:01.895Z,76.3
2018-06-19T21:02:01.401Z,76.6
2018-06-19T21:03:00.816Z,76.3
2018-06-19T21:04:00.142Z,76.5
2018-06-19T21:04:59.461Z,76.6
2018-06-19T21:05:58.790Z,76.7
2018-06-19T21:06:58.110Z,76.4
2018-06-19T21:07:57.945Z,76.5
2018-06-19T21:08:57.046Z,76.1
2018-06-19T21:09:56.482Z,75.9
2018-06-19T21:10:55.796Z,76.3
2018-06-19T21:11:55.466Z,76.5
2018-06-19T21:12:54.885Z,76.6
2018-06-19T21:13:54.427Z,77.6
2018-06-19T21:14:53.682Z,77.2
2018-06-19T21:15:52.897Z,76.8
2018-06-19T21:16:52.213Z,76.7
2018-06-19T21:17:51.710Z,76.6
2018-06-19T21:18:50.971Z,76.6
2018-06-19T21:19:50.178Z,76.5
2018-06-19T21:20:49.890Z,76.6
2018-06-19T21:21:48.992Z,76.9
2018-06-19T21:22:48.709Z,77.2
2018-06-19T21:23:48.136Z,77.4
2018-06-19T21:24:47.351Z,77.4
2018-06-19T21:25:46.674Z,77.1
2018-06-19T21:26:17.090Z,77.1
2018-06-19T21:26:47.402Z,77.5
2018-06-19T21:27:18.041Z,77.5
2018-06-19T21:28:45.038Z,77.4
2018-06-19T21:29:44.461Z,77.3
2018-06-19T21:30:43.790Z,77.3
2018-06-19T21:31:42.899Z,77.7
2018-06-19T21:32:42.513Z,77.5
2018-06-19T21:33:41.833Z,77.7
2018-06-19T21:34:41.055Z,78.1
2018-06-19T21:35:11.576Z,78.1
2018-06-19T21:35:42.097Z,77.7
2018-06-19T21:36:12.417Z,77.7
2018-06-19T21:36:43.055Z,77.7
2018-06-19T21:37:13.797Z,77.7
2018-06-19T21:37:44.427Z,78.4